Seneca, SC (29672)

3:42 PM EDT on July 05, 2015 (GMT -0400)
KE4OGG-Seneca | | Change Station
CLOSE
Current Station
Personal Weather Station
Location: Seneca, SC
Elevation: 958 ft
Nearby Weather Stations

Elev 958 ft 34.68 °N, 82.95 °W | Updated 19 seconds ago

Overcast
Overcast
80.1 °F
Feels Like 85 °F
N
6.9
Wind Variable Wind from East
Gusts 6.9 mph

Today
High -- | Low -- °F
--% Chance of Precip.
Yesterday
High -- | Low -- °F
Precip. -- in
6:24 AM 8:48 PM
Waning Gibbous, 82% visible
Pressure 30.10 in
Visibility 4.0 miles
Clouds Scattered Clouds 3400 ft
Mostly Cloudy 4100 ft
Overcast 7500 ft
Heat Index 85 °F
Dew Point 76 °F
Humidity 87%
Rainfall 0.13 in
Snow Depth Not available.
UV 3 out of 12
Pollen 1.60 out of 12
Air Quality Not available.
Flu Activity Not available.
SPECI KCEU 051924Z AUTO VRB04KT 4SM -RA SCT034 BKN041 OVC075 23/19 A3010 RMK AO2 P0008 T02280194

More Conditions Fewer Conditions

Pressure 30.10 in
Visibility 4.0 miles
Clouds Scattered Clouds 3400 ft
Mostly Cloudy 4100 ft
Overcast 7500 ft
Heat Index 85 °F
Dew Point 76 °F
Humidity 87%
Rainfall 0.13 in
Snow Depth Not available.
UV 3 out of 12
Pollen 1.60 out of 12
Air Quality Not available.
Flu Activity Not available.
SPECI KCEU 051924Z AUTO VRB04KT 4SM -RA SCT034 BKN041 OVC075 23/19 A3010 RMK AO2 P0008 T02280194

More Conditions Fewer Conditions

10-Day Weather Forecast

×

Almanac

Astronomy

Jul. 05, 2015 Rise Set
Actual Time
Civil Twilight
Nautical Twilight
Astronomical Twilight
Moon
Length of Visible Light
Length of Day
Tomorrow will be .
, % of the Moon is Illuminated

Today's Extremes

State Highs State Lows

Community

WunderPhotos

Upload Photos

1,835,360 photos uploaded!

WunderBlogs® & News

Nearby

Air Quality

  Air Quality AQ Index Pollutant
Not available.

Snow Depth

Station Depth Elevation

Earthquake Activity

City Distance Mag. Time & Date
Minimum magnitude displayed is 2.5.

Coastal Water Temperatures

Place Temperature

Stations

Nearby Weather Stations

Station Location Temp. Windchill Dew Point Humidity Wind Precip. Elev Updated Type